sensor_id;sensor_type;location;lat;lon;timestamp;pressure;altitude;pressure_sealevel;temperature;humidity
37132;BME280;23035;50.032;21.978;2023-02-28T00:03:17;65165.06;;;-0.05;100.00
37132;BME280;23035;50.032;21.978;2023-02-28T00:08:24;65226.09;;;0.51;100.00
37132;BME280;23035;50.032;21.978;2023-02-28T00:13:30;65215.03;;;0.43;100.00
37132;BME280;23035;50.032;21.978;2023-02-28T00:18:34;65258.75;;;0.88;100.00
37132;BME280;23035;50.032;21.978;2023-02-28T00:23:40;65265.47;;;0.89;100.00
37132;BME280;23035;50.032;21.978;2023-02-28T00:28:45;65266.41;;;0.88;100.00
37132;BME280;23035;50.032;21.978;2023-02-28T00:33:51;65267.16;;;0.93;100.00
37132;BME280;23035;50.032;21.978;2023-02-28T00:38:57;65259.09;;;0.83;100.00
37132;BME280;23035;50.032;21.978;2023-02-28T00:44:03;65239.50;;;0.67;100.00
37132;BME280;23035;50.032;21.978;2023-02-28T00:49:08;65239.63;;;0.69;100.00
37132;BME280;23035;50.032;21.978;2023-02-28T00:54:14;65247.28;;;0.69;100.00
37132;BME280;23035;50.032;21.978;2023-02-28T00:59:18;65242.19;;;0.69;100.00
37132;BME280;23035;50.032;21.978;2023-02-28T01:04:23;65245.34;;;0.72;100.00
37132;BME280;23035;50.032;21.978;2023-02-28T01:09:29;65121.78;;;-0.51;100.00
37132;BME280;23035;50.032;21.978;2023-02-28T01:14:34;65174.97;;;0.00;100.00
37132;BME280;23035;50.032;21.978;2023-02-28T01:19:39;65191.53;;;0.18;100.00
37132;BME280;23035;50.032;21.978;2023-02-28T01:24:46;65115.22;;;-0.50;100.00
37132;BME280;23035;50.032;21.978;2023-02-28T01:29:50;65045.09;;;-1.17;100.00
37132;BME280;23035;50.032;21.978;2023-02-28T01:34:55;65014.63;;;-1.51;100.00
37132;BME280;23035;50.032;21.978;2023-02-28T01:40:00;64953.38;;;-2.15;100.00
37132;BME280;23035;50.032;21.978;2023-02-28T01:45:07;64996.34;;;-1.74;100.00
37132;BME280;23035;50.032;21.978;2023-02-28T01:50:22;65080.56;;;-0.85;100.00
37132;BME280;23035;50.032;21.978;2023-02-28T01:55:30;65133.47;;;-0.40;100.00
37132;BME280;23035;50.032;21.978;2023-02-28T02:00:35;65151.47;;;-0.25;100.00
37132;BME280;23035;50.032;21.978;2023-02-28T02:05:39;65053.38;;;-1.14;100.00
37132;BME280;23035;50.032;21.978;2023-02-28T02:10:45;65039.69;;;-1.25;100.00
37132;BME280;23035;50.032;21.978;2023-02-28T02:15:54;64895.88;;;-2.63;100.00
37132;BME280;23035;50.032;21.978;2023-02-28T02:26:30;64977.56;;;-1.84;100.00
37132;BME280;23035;50.032;21.978;2023-02-28T02:31:52;65019.41;;;-1.47;100.00
37132;BME280;23035;50.032;21.978;2023-02-28T02:37:07;65048.72;;;-1.16;100.00
37132;BME280;23035;50.032;21.978;2023-02-28T02:42:14;64924.53;;;-2.35;100.00
37132;BME280;23035;50.032;21.978;2023-02-28T02:47:21;64933.00;;;-2.27;100.00
37132;BME280;23035;50.032;21.978;2023-02-28T02:52:30;65012.91;;;-1.55;100.00
37132;BME280;23035;50.032;21.978;2023-02-28T02:57:40;65104.69;;;-0.70;100.00
37132;BME280;23035;50.032;21.978;2023-02-28T03:02:48;65063.47;;;-1.04;100.00
37132;BME280;23035;50.032;21.978;2023-02-28T03:07:55;65042.22;;;-1.25;100.00
37132;BME280;23035;50.032;21.978;2023-02-28T03:13:09;65078.34;;;-0.90;100.00
37132;BME280;23035;50.032;21.978;2023-02-28T03:18:16;65093.75;;;-0.75;100.00
37132;BME280;23035;50.032;21.978;2023-02-28T03:23:28;65080.03;;;-0.86;100.00
37132;BME280;23035;50.032;21.978;2023-02-28T03:28:37;65088.97;;;-0.80;100.00
37132;BME280;23035;50.032;21.978;2023-02-28T03:33:44;65087.06;;;-0.77;100.00
37132;BME280;23035;50.032;21.978;2023-02-28T03:38:59;65085.25;;;-0.83;100.00
37132;BME280;23035;50.032;21.978;2023-02-28T03:44:06;65109.38;;;-0.55;100.00
37132;BME280;23035;50.032;21.978;2023-02-28T03:49:13;65120.44;;;-0.47;100.00
37132;BME280;23035;50.032;21.978;2023-02-28T03:54:21;65104.38;;;-0.65;100.00
37132;BME280;23035;50.032;21.978;2023-02-28T03:59:28;65030.56;;;-1.36;100.00
37132;BME280;23035;50.032;21.978;2023-02-28T04:04:33;64990.72;;;-1.74;100.00
37132;BME280;23035;50.032;21.978;2023-02-28T04:09:42;65009.41;;;-1.54;100.00
37132;BME280;23035;50.032;21.978;2023-02-28T04:14:49;64999.09;;;-1.68;100.00
37132;BME280;23035;50.032;21.978;2023-02-28T04:19:56;64982.78;;;-1.82;100.00
37132;BME280;23035;50.032;21.978;2023-02-28T04:25:06;65094.28;;;-0.75;100.00
37132;BME280;23035;50.032;21.978;2023-02-28T04:30:13;65069.84;;;-0.98;100.00
37132;BME280;23035;50.032;21.978;2023-02-28T04:35:20;65068.66;;;-1.02;100.00
37132;BME280;23035;50.032;21.978;2023-02-28T04:40:28;65057.75;;;-1.07;100.00
37132;BME280;23035;50.032;21.978;2023-02-28T04:45:35;65073.56;;;-0.95;100.00
37132;BME280;23035;50.032;21.978;2023-02-28T04:50:42;65058.56;;;-1.11;100.00
37132;BME280;23035;50.032;21.978;2023-02-28T04:55:50;65009.84;;;-1.56;100.00
37132;BME280;23035;50.032;21.978;2023-02-28T05:01:01;65001.97;;;-1.61;100.00
37132;BME280;23035;50.032;21.978;2023-02-28T05:06:10;64973.00;;;-1.96;100.00
37132;BME280;23035;50.032;21.978;2023-02-28T05:11:21;64964.63;;;-2.02;100.00
37132;BME280;23035;50.032;21.978;2023-02-28T05:16:28;64924.41;;;-2.38;100.00
37132;BME280;23035;50.032;21.978;2023-02-28T05:21:36;64900.97;;;-2.63;100.00
37132;BME280;23035;50.032;21.978;2023-02-28T05:26:44;64970.34;;;-1.98;100.00
37132;BME280;23035;50.032;21.978;2023-02-28T05:31:51;65032.56;;;-1.36;100.00
37132;BME280;23035;50.032;21.978;2023-02-28T05:36:57;65098.84;;;-0.75;100.00
37132;BME280;23035;50.032;21.978;2023-02-28T05:42:06;65087.59;;;-0.76;100.00
37132;BME280;23035;50.032;21.978;2023-02-28T05:47:45;65090.03;;;-0.79;100.00
37132;BME280;23035;50.032;21.978;2023-02-28T05:52:52;65130.31;;;-0.43;100.00
37132;BME280;23035;50.032;21.978;2023-02-28T05:58:00;65072.50;;;-0.96;100.00
37132;BME280;23035;50.032;21.978;2023-02-28T06:03:07;65043.41;;;-1.21;100.00
37132;BME280;23035;50.032;21.978;2023-02-28T06:08:14;65094.28;;;-0.75;100.00
37132;BME280;23035;50.032;21.978;2023-02-28T06:13:21;65089.09;;;-0.77;100.00
37132;BME280;23035;50.032;21.978;2023-02-28T06:18:29;65105.97;;;-0.64;100.00
37132;BME280;23035;50.032;21.978;2023-02-28T06:23:35;65082.59;;;-0.86;100.00
37132;BME280;23035;50.032;21.978;2023-02-28T06:28:43;64956.34;;;-2.05;100.00
37132;BME280;23035;50.032;21.978;2023-02-28T06:33:50;64942.34;;;-2.23;100.00
37132;BME280;23035;50.032;21.978;2023-02-28T06:38:57;64899.38;;;-2.64;100.00
37132;BME280;23035;50.032;21.978;2023-02-28T06:44:08;64944.44;;;-2.21;100.00
37132;BME280;23035;50.032;21.978;2023-02-28T06:49:50;65012.69;;;-1.48;100.00
37132;BME280;23035;50.032;21.978;2023-02-28T06:54:58;65065.59;;;-1.02;100.00
37132;BME280;23035;50.032;21.978;2023-02-28T07:00:07;65174.63;;;0.05;100.00
37132;BME280;23035;50.032;21.978;2023-02-28T07:05:13;65138.47;;;-0.30;100.00
37132;BME280;23035;50.032;21.978;2023-02-28T07:10:20;65053.38;;;-1.14;100.00
37132;BME280;23035;50.032;21.978;2023-02-28T07:15:31;65043.19;;;-1.26;100.00
37132;BME280;23035;50.032;21.978;2023-02-28T07:20:37;65031.28;;;-1.30;100.00
37132;BME280;23035;50.032;21.978;2023-02-28T07:25:44;65004.00;;;-1.61;100.00
37132;BME280;23035;50.032;21.978;2023-02-28T07:30:53;64992.84;;;-1.72;100.00
37132;BME280;23035;50.032;21.978;2023-02-28T07:36:00;64974.16;;;-1.92;100.00
37132;BME280;23035;50.032;21.978;2023-02-28T07:41:07;65110.88;;;-0.56;100.00
37132;BME280;23035;50.032;21.978;2023-02-28T07:46:15;65154.88;;;-0.17;100.00
37132;BME280;23035;50.032;21.978;2023-02-28T07:51:24;65170.16;;;-0.05;100.00
37132;BME280;23035;50.032;21.978;2023-02-28T07:56:31;65196.97;;;0.26;100.00
37132;BME280;23035;50.032;21.978;2023-02-28T08:01:39;65180.69;;;0.03;100.00
37132;BME280;23035;50.032;21.978;2023-02-28T08:06:45;65201.75;;;0.31;100.00
37132;BME280;23035;50.032;21.978;2023-02-28T08:11:52;65097.56;;;-0.69;100.00
37132;BME280;23035;50.032;21.978;2023-02-28T08:17:00;65112.88;;;-0.57;100.00
37132;BME280;23035;50.032;21.978;2023-02-28T08:22:07;65165.38;;;-0.09;100.00
37132;BME280;23035;50.032;21.978;2023-02-28T08:27:14;65225.34;;;0.46;100.00
37132;BME280;23035;50.032;21.978;2023-02-28T08:32:26;65120.31;;;-0.50;100.00
37132;BME280;23035;50.032;21.978;2023-02-28T08:37:32;65078.47;;;-0.88;100.00
37132;BME280;23035;50.032;21.978;2023-02-28T08:42:39;65072.94;;;-0.98;100.00
37132;BME280;23035;50.032;21.978;2023-02-28T08:47:47;65163.91;;;-0.08;100.00
37132;BME280;23035;50.032;21.978;2023-02-28T08:52:57;65204.19;;;0.28;100.00
37132;BME280;23035;50.032;21.978;2023-02-28T08:58:04;65195.03;;;0.29;100.00
37132;BME280;23035;50.032;21.978;2023-02-28T09:03:12;65290.03;;;1.15;100.00
37132;BME280;23035;50.032;21.978;2023-02-28T09:08:17;65221.97;;;0.50;97.73
37132;BME280;23035;50.032;21.978;2023-02-28T09:13:24;65222.38;;;0.48;100.00
37132;BME280;23035;50.032;21.978;2023-02-28T09:18:33;65185.78;;;0.15;100.00
37132;BME280;23035;50.032;21.978;2023-02-28T09:23:40;65168.16;;;-0.04;100.00
37132;BME280;23035;50.032;21.978;2023-02-28T09:28:45;65228.75;;;0.54;100.00
37132;BME280;23035;50.032;21.978;2023-02-28T09:33:53;65208.03;;;0.34;100.00
37132;BME280;23035;50.032;21.978;2023-02-28T09:38:59;65170.91;;;0.01;100.00
37132;BME280;23035;50.032;21.978;2023-02-28T09:44:05;65254.41;;;0.81;100.00
37132;BME280;23035;50.032;21.978;2023-02-28T09:49:16;65227.59;;;0.50;100.00
37132;BME280;23035;50.032;21.978;2023-02-28T09:54:24;65341.56;;;1.62;99.92
37132;BME280;23035;50.032;21.978;2023-02-28T09:59:35;65357.56;;;1.77;93.72
37132;BME280;23035;50.032;21.978;2023-02-28T10:04:49;65468.34;;;2.83;86.95
37132;BME280;23035;50.032;21.978;2023-02-28T10:09:57;65404.75;;;2.17;88.72
37132;BME280;23035;50.032;21.978;2023-02-28T10:15:07;65391.19;;;2.12;89.64
37132;BME280;23035;50.032;21.978;2023-02-28T10:20:21;65387.34;;;2.06;89.66
37132;BME280;23035;50.032;21.978;2023-02-28T10:25:35;65392.25;;;2.13;87.85
37132;BME280;23035;50.032;21.978;2023-02-28T10:30:42;65379.25;;;1.95;88.96
37132;BME280;23035;50.032;21.978;2023-02-28T10:35:52;65529.19;;;3.43;82.02
37132;BME280;23035;50.032;21.978;2023-02-28T10:41:05;65528.66;;;3.43;80.02
37132;BME280;23035;50.032;21.978;2023-02-28T10:46:13;65507.34;;;3.23;79.70
37132;BME280;23035;50.032;21.978;2023-02-28T10:51:36;65462.13;;;2.82;82.57
37132;BME280;23035;50.032;21.978;2023-02-28T10:56:42;65366.28;;;1.90;86.56
37132;BME280;23035;50.032;21.978;2023-02-28T11:01:46;65466.75;;;2.81;83.99
37132;BME280;23035;50.032;21.978;2023-02-28T11:06:58;65375.75;;;1.97;87.87
37132;BME280;23035;50.032;21.978;2023-02-28T11:12:03;65363.41;;;1.83;88.76
37132;BME280;23035;50.032;21.978;2023-02-28T11:17:13;65488.06;;;3.02;86.41
37132;BME280;23035;50.032;21.978;2023-02-28T11:22:23;65660.88;;;4.67;77.21
37132;BME280;23035;50.032;21.978;2023-02-28T11:27:43;65641.56;;;4.46;75.90
37132;BME280;23035;50.032;21.978;2023-02-28T11:32:50;65660.53;;;4.71;73.70
37132;BME280;23035;50.032;21.978;2023-02-28T11:37:56;65723.34;;;5.26;72.52
37132;BME280;23035;50.032;21.978;2023-02-28T11:43:03;65729.41;;;5.37;70.98
37132;BME280;23035;50.032;21.978;2023-02-28T11:48:14;65649.31;;;4.60;72.07
37132;BME280;23035;50.032;21.978;2023-02-28T11:53:25;65694.25;;;5.06;74.18
37132;BME280;23035;50.032;21.978;2023-02-28T11:58:43;65635.25;;;4.42;74.25
37132;BME280;23035;50.032;21.978;2023-02-28T12:03:56;65662.16;;;4.73;72.64
37132;BME280;23035;50.032;21.978;2023-02-28T12:09:10;65646.56;;;4.55;74.84
37132;BME280;23035;50.032;21.978;2023-02-28T12:14:28;65923.88;;;7.19;nan
37132;BME280;23035;50.032;21.978;2023-02-28T12:19:38;65735.28;;;5.42;69.76
37132;BME280;23035;50.032;21.978;2023-02-28T12:25:06;66001.97;;;7.94;61.70
37132;BME280;23035;50.032;21.978;2023-02-28T12:30:22;66095.69;;;8.83;56.88
37132;BME280;23035;50.032;21.978;2023-02-28T12:35:32;66065.97;;;8.62;57.07
37132;BME280;23035;50.032;21.978;2023-02-28T12:40:43;66058.75;;;8.48;56.86
37132;BME280;23035;50.032;21.978;2023-02-28T12:45:50;66128.53;;;9.19;55.64
37132;BME280;23035;50.032;21.978;2023-02-28T12:50:59;66147.81;;;9.37;53.66
37132;BME280;23035;50.032;21.978;2023-02-28T12:56:13;66263.63;;;10.47;49.75
37132;BME280;23035;50.032;21.978;2023-02-28T13:01:39;66216.25;;;9.97;49.71
37132;BME280;23035;50.032;21.978;2023-02-28T13:07:08;66202.94;;;9.87;49.57
37132;BME280;23035;50.032;21.978;2023-02-28T13:12:20;66113.97;;;9.03;51.81
37132;BME280;23035;50.032;21.978;2023-02-28T13:17:37;66202.94;;;9.87;49.70
37132;BME280;23035;50.032;21.978;2023-02-28T13:22:45;66092.94;;;8.78;51.01
37132;BME280;23035;50.032;21.978;2023-02-28T13:27:56;65761.25;;;5.62;61.74
37132;BME280;23035;50.032;21.978;2023-02-28T13:33:24;65952.75;;;7.47;60.59
37132;BME280;23035;50.032;21.978;2023-02-28T13:38:36;66088.19;;;8.76;55.21
37132;BME280;23035;50.032;21.978;2023-02-28T13:44:01;66044.19;;;8.31;53.92
37132;BME280;23035;50.032;21.978;2023-02-28T13:49:19;65897.31;;;6.99;58.22
37132;BME280;23035;50.032;21.978;2023-02-28T13:54:28;65929.84;;;7.28;58.69
37132;BME280;23035;50.032;21.978;2023-02-28T13:59:39;65708.81;;;5.10;63.06
37132;BME280;23035;50.032;21.978;2023-02-28T14:05:04;65644.31;;;4.51;68.28
37132;BME280;23035;50.032;21.978;2023-02-28T14:10:16;65658.94;;;4.70;69.92
37132;BME280;23035;50.032;21.978;2023-02-28T14:15:41;65694.50;;;4.99;69.10
37132;BME280;23035;50.032;21.978;2023-02-28T14:20:49;65500.00;;;3.18;77.80
37132;BME280;23035;50.032;21.978;2023-02-28T14:26:01;65575.06;;;3.87;76.23
37132;BME280;23035;50.032;21.978;2023-02-28T14:31:11;65642.81;;;4.52;73.43
37132;BME280;23035;50.032;21.978;2023-02-28T14:36:21;65719.25;;;5.27;70.33
37132;BME280;23035;50.032;21.978;2023-02-28T14:41:35;65781.66;;;5.84;67.56
37132;BME280;23035;50.032;21.978;2023-02-28T14:46:55;65836.81;;;6.39;61.89
37132;BME280;23035;50.032;21.978;2023-02-28T14:58:38;65864.06;;;6.65;61.22
37132;BME280;23035;50.032;21.978;2023-02-28T15:09:50;65866.13;;;6.65;61.06
37132;BME280;23035;50.032;21.978;2023-02-28T15:16:17;65806.78;;;6.08;62.14
37132;BME280;23035;50.032;21.978;2023-02-28T15:22:12;65775.06;;;5.73;63.02
37132;BME280;23035;50.032;21.978;2023-02-28T15:27:36;65762.88;;;5.64;65.13
37132;BME280;23035;50.032;21.978;2023-02-28T15:33:06;65783.47;;;5.91;63.60
37132;BME280;23035;50.032;21.978;2023-02-28T15:44:18;65721.84;;;5.27;65.28
37132;BME280;23035;50.032;21.978;2023-02-28T15:50:15;65677.44;;;4.82;68.07
37132;BME280;23035;50.032;21.978;2023-02-28T15:55:54;65656.25;;;4.67;68.96
37132;BME280;23035;50.032;21.978;2023-02-28T16:01:19;65569.63;;;3.80;73.07
37132;BME280;23035;50.032;21.978;2023-02-28T16:06:53;65517.47;;;3.32;78.06
37132;BME280;23035;50.032;21.978;2023-02-28T16:12:39;65511.09;;;3.26;78.38
37132;BME280;23035;50.032;21.978;2023-02-28T16:18:12;65525.91;;;3.38;77.08
37132;BME280;23035;50.032;21.978;2023-02-28T16:23:34;65461.41;;;2.76;80.88
37132;BME280;23035;50.032;21.978;2023-02-28T16:28:40;65433.72;;;2.50;84.13
37132;BME280;23035;50.032;21.978;2023-02-28T16:33:52;65406.00;;;2.23;85.70
37132;BME280;23035;50.032;21.978;2023-02-28T16:38:59;65388.00;;;2.09;89.34
37132;BME280;23035;50.032;21.978;2023-02-28T16:44:04;65432.75;;;2.51;87.74
37132;BME280;23035;50.032;21.978;2023-02-28T16:49:16;65367.22;;;1.89;91.11
37132;BME280;23035;50.032;21.978;2023-02-28T16:54:20;65446.06;;;2.64;87.90
37132;BME280;23035;50.032;21.978;2023-02-28T16:59:25;65402.91;;;2.23;92.49
37132;BME280;23035;50.032;21.978;2023-02-28T17:04:32;65308.47;;;1.28;98.00
37132;BME280;23035;50.032;21.978;2023-02-28T17:09:36;65212.16;;;0.36;100.00
37132;BME280;23035;50.032;21.978;2023-02-28T17:14:45;65208.44;;;0.32;100.00
37132;BME280;23035;50.032;21.978;2023-02-28T17:19:51;65283.22;;;1.11;100.00
37132;BME280;23035;50.032;21.978;2023-02-28T17:24:56;65245.47;;;0.75;100.00
37132;BME280;23035;50.032;21.978;2023-02-28T17:30:01;65183.25;;;0.15;100.00
37132;BME280;23035;50.032;21.978;2023-02-28T17:35:07;65160.59;;;-0.14;100.00
37132;BME280;23035;50.032;21.978;2023-02-28T17:40:13;65137.41;;;-0.31;100.00
37132;BME280;23035;50.032;21.978;2023-02-28T17:45:17;65124.13;;;-0.44;100.00
37132;BME280;23035;50.032;21.978;2023-02-28T17:50:23;65214.41;;;0.40;100.00
37132;BME280;23035;50.032;21.978;2023-02-28T17:55:27;65093.22;;;-0.76;100.00
37132;BME280;23035;50.032;21.978;2023-02-28T18:00:31;65095.34;;;-0.74;100.00
37132;BME280;23035;50.032;21.978;2023-02-28T18:05:37;65064.63;;;-1.01;100.00
37132;BME280;23035;50.032;21.978;2023-02-28T18:10:41;65066.56;;;-1.04;100.00
37132;BME280;23035;50.032;21.978;2023-02-28T18:15:46;65062.94;;;-1.05;100.00
37132;BME280;23035;50.032;21.978;2023-02-28T18:20:52;65137.75;;;-0.36;100.00
37132;BME280;23035;50.032;21.978;2023-02-28T18:25:56;65083.56;;;-0.88;100.00
37132;BME280;23035;50.032;21.978;2023-02-28T18:31:04;65164.53;;;-0.05;100.00
37132;BME280;23035;50.032;21.978;2023-02-28T18:36:10;65097.47;;;-0.72;100.00
37132;BME280;23035;50.032;21.978;2023-02-28T18:41:15;65027.88;;;-1.38;100.00
37132;BME280;23035;50.032;21.978;2023-02-28T18:46:20;65057.63;;;-1.10;100.00
37132;BME280;23035;50.032;21.978;2023-02-28T18:51:33;65027.34;;;-1.39;100.00
37132;BME280;23035;50.032;21.978;2023-02-28T18:56:39;65009.84;;;-1.56;100.00
37132;BME280;23035;50.032;21.978;2023-02-28T19:01:47;65046.38;;;-1.23;100.00
37132;BME280;23035;50.032;21.978;2023-02-28T19:06:52;65115.00;;;-0.55;100.00
37132;BME280;23035;50.032;21.978;2023-02-28T19:11:57;65227.16;;;0.52;100.00
37132;BME280;23035;50.032;21.978;2023-02-28T19:17:01;65253.88;;;0.80;100.00
37132;BME280;23035;50.032;21.978;2023-02-28T19:22:07;65294.41;;;1.22;100.00
37132;BME280;23035;50.032;21.978;2023-02-28T19:27:12;65301.22;;;1.26;100.00
37132;BME280;23035;50.032;21.978;2023-02-28T19:32:16;65312.91;;;1.37;100.00
37132;BME280;23035;50.032;21.978;2023-02-28T19:37:23;65288.97;;;1.14;100.00
37132;BME280;23035;50.032;21.978;2023-02-28T19:42:27;65237.38;;;0.65;100.00
37132;BME280;23035;50.032;21.978;2023-02-28T19:47:34;65198.44;;;0.25;100.00
37132;BME280;23035;50.032;21.978;2023-02-28T19:52:41;65245.66;;;0.68;100.00
37132;BME280;23035;50.032;21.978;2023-02-28T19:57:46;65239.50;;;0.67;100.00
37132;BME280;23035;50.032;21.978;2023-02-28T20:02:50;65232.47;;;0.57;100.00
37132;BME280;23035;50.032;21.978;2023-02-28T20:07:56;65243.66;;;0.68;100.00
37132;BME280;23035;50.032;21.978;2023-02-28T20:13:01;65250.03;;;0.74;100.00
37132;BME280;23035;50.032;21.978;2023-02-28T20:18:05;65266.00;;;0.90;100.00
37132;BME280;23035;50.032;21.978;2023-02-28T20:23:11;65265.66;;;0.94;100.00
37132;BME280;23035;50.032;21.978;2023-02-28T20:28:15;65178.25;;;0.06;100.00
37132;BME280;23035;50.032;21.978;2023-02-28T20:33:19;65032.13;;;-1.34;100.00
37132;BME280;23035;50.032;21.978;2023-02-28T20:38:25;65075.16;;;-0.93;100.00
37132;BME280;23035;50.032;21.978;2023-02-28T20:43:29;65157.94;;;-0.16;100.00
37132;BME280;23035;50.032;21.978;2023-02-28T20:48:34;65070.91;;;-0.97;100.00
37132;BME280;23035;50.032;21.978;2023-02-28T20:53:44;65096.94;;;-0.72;100.00
37132;BME280;23035;50.032;21.978;2023-02-28T20:58:50;65041.81;;;-1.23;100.00
37132;BME280;23035;50.032;21.978;2023-02-28T21:03:55;65115.53;;;-0.54;100.00
37132;BME280;23035;50.032;21.978;2023-02-28T21:09:03;65155.59;;;-0.11;100.00
37132;BME280;23035;50.032;21.978;2023-02-28T21:14:08;65176.03;;;0.01;100.00
37132;BME280;23035;50.032;21.978;2023-02-28T21:19:12;65184.09;;;0.11;100.00
37132;BME280;23035;50.032;21.978;2023-02-28T21:24:18;65172.94;;;0.01;100.00
37132;BME280;23035;50.032;21.978;2023-02-28T21:29:22;65175.50;;;0.01;100.00
37132;BME280;23035;50.032;21.978;2023-02-28T21:34:26;65201.53;;;0.25;100.00
37132;BME280;23035;50.032;21.978;2023-02-28T21:39:32;65201.97;;;0.23;100.00
37132;BME280;23035;50.032;21.978;2023-02-28T21:44:37;65101.72;;;-0.68;100.00
37132;BME280;23035;50.032;21.978;2023-02-28T21:49:41;65047.97;;;-1.22;100.00
37132;BME280;23035;50.032;21.978;2023-02-28T21:54:47;64999.22;;;-1.66;100.00
37132;BME280;23035;50.032;21.978;2023-02-28T21:59:51;65034.25;;;-1.32;100.00
37132;BME280;23035;50.032;21.978;2023-02-28T22:04:55;64983.94;;;-1.78;100.00
37132;BME280;23035;50.032;21.978;2023-02-28T22:10:07;64991.25;;;-1.74;100.00
37132;BME280;23035;50.032;21.978;2023-02-28T22:15:11;64873.06;;;-2.84;100.00
37132;BME280;23035;50.032;21.978;2023-02-28T22:20:15;64810.81;;;-3.49;100.00
37132;BME280;23035;50.032;21.978;2023-02-28T22:25:21;64805.13;;;-3.52;100.00
37132;BME280;23035;50.032;21.978;2023-02-28T22:30:25;64812.53;;;-3.45;100.00
37132;BME280;23035;50.032;21.978;2023-02-28T22:35:29;64895.78;;;-2.65;100.00
37132;BME280;23035;50.032;21.978;2023-02-28T22:40:35;64910.50;;;-2.53;100.00
37132;BME280;23035;50.032;21.978;2023-02-28T22:45:39;64925.34;;;-2.39;100.00
37132;BME280;23035;50.032;21.978;2023-02-28T22:50:44;64854.38;;;-3.05;100.00
37132;BME280;23035;50.032;21.978;2023-02-28T22:55:54;64899.47;;;-2.62;100.00
37132;BME280;23035;50.032;21.978;2023-02-28T23:01:03;64940.31;;;-2.22;100.00
37132;BME280;23035;50.032;21.978;2023-02-28T23:06:11;64871.78;;;-2.91;100.00
37132;BME280;23035;50.032;21.978;2023-02-28T23:11:18;65009.84;;;-1.56;100.00
37132;BME280;23035;50.032;21.978;2023-02-28T23:16:23;65125.09;;;-0.45;100.00
37132;BME280;23035;50.032;21.978;2023-02-28T23:21:27;65046.47;;;-1.21;100.00
37132;BME280;23035;50.032;21.978;2023-02-28T23:26:33;65016.22;;;-1.50;100.00
37132;BME280;23035;50.032;21.978;2023-02-28T23:31:37;64897.22;;;-2.66;100.00
37132;BME280;23035;50.032;21.978;2023-02-28T23:36:41;64933.66;;;-2.24;100.00
37132;BME280;23035;50.032;21.978;2023-02-28T23:41:49;64830.44;;;-3.30;100.00
37132;BME280;23035;50.032;21.978;2023-02-28T23:46:53;64850.25;;;-3.06;100.00
37132;BME280;23035;50.032;21.978;2023-02-28T23:51:57;64955.06;;;-2.11;100.00
37132;BME280;23035;50.032;21.978;2023-02-28T23:57:02;64918.47;;;-2.46;100.00
